Aérodrome :
LOGIN :

S'inscrire | Disclaimer

   EN    FR    IT 

 










Légende :    VFR   VFR Marginal   IFR   IFR Intensif   IFR Très Intensif
Visi : 
Plafond : 
>= 8 km
>= 3000ft
5 à 8 km
1000 à 3000 ft
1500m à 5 km
500 à 1000 ft
800 à 1500m
200 à 500 ft
< 800m
< 200 ft
Symboles :   Orages  Brouillard  Fortes neiges  Fortes précipitations  Vent > 20 kt
SIGMETs :   Divers  Orages  Givrage  Turbulence  Onde Orograph.  Cendres Volcan.







- Altitude de l'aérodrome : -15 ft
- Code IATA : RTM


EHRD - Rotterdam Zestienhoven

DERNIER METAR :
  • 180955Z AUTO 07011KT 040V100 9999 NCD 03/M02 Q1030 NOSIG

METARs EXPIRÉS :
  • 180925Z AUTO 07008KT 040V100 9999 NCD 02/M01 Q1030 NOSIG
  • 180855Z AUTO 06011KT 9999 NCD 01/M02 Q1030 NOSIG
  • 180825Z AUTO 06006KT 040V100 9999 NSC 00/M02 Q1030 NOSIG
  • 180755Z AUTO 06007KT 7000 NCD M02/M03 Q1030 BECMG 8000
  • 180725Z AUTO 04003KT 7000 NCD M01/M02 Q1030 BECMG 8000

TAF TAF EHRD
Valide du 18 à 06h jusqu'au 19 à 12h UTC


180512Z 1806/1912 07011KT CAVOK
BECMG 1821/1824 SCT012 BKN018
PROB40
TEMPO 1822/1910 6000 -RADZ SCT008 BKN012
BECMG 1908/1911 06015G25KT
Pas de NOTAMs connus pour ce terrain.



MET'MAP, la Météo Aéronautique d'un coup d'oeil ! - Copyright ORBIFLY Décembre 2007 - Disclaimer

ORBIFLY MET'MAP TEAM :

Programmation & Développement : Alexandra Zaïnal
Conception & Développement : Baudouin d'Aumeries
Co-Programmation & Développement : Marc-Olivier Méhu
Soutien technique & logistique : Manuel Goepfert

Contact : metmap@orbifly.com




SOURCES & CREDITS :

   NOAA